Terminal Aerodrome Forecast
Issued by NWS

Home | Current Version | Previous Version | Graphics & Text | Print | Product List | Glossary On
Versions: 1 2 3 4 5 6 7 8 9 10 11 12 13 14 15
000
FTUS43 KBIS 171722
TAFMOT
TAF
KMOT 171722Z 1718/1818 26022G31KT P6SM FEW250 WS020/30045KT
     FM180000 25018KT P6SM FEW250 WS020/30045KT
     FM180400 25016KT P6SM BKN250 WS020/30040KT
     FM180700 26013KT P6SM SCT250=

USA.gov is the U.S. government's official web portal to all federal, state and local government web resources and services.